HEGN

Hurghada International Airport

Hurghada, Egypt
METAR HEGN 191000Z 36020KT CAVOK 35/15 Q1009 NOSIG
Observed Flight Rules
Sep-19 @ 10:00 UTC (an hour ago) Visual Flight Rules
Wind Visibility Clouds
360° at 20 knots 10,000+ meters
  • Clear skies
Temperatures Readings
Current 35°C / 95°F
Dewpoint 15°C / 59°F
Humidity 30%
Altimeter 29.79" Hg
Pressure 1009 hPa
Elevation 14
METAR HEGN 191000Z 36020KT CAVOK 35/15 Q1009 NOSIG
Observed Flight Rules
Sep-19 @ 10:00 UTC
(an hour ago)
VFR
Wind Visibility
360° at 20 knots 10,000+ meters
Clouds
  • Clear skies
Temperature Dewpoint
35°C / 95°F 15°C / 59°F
Humidity Altimeter Pressure
30% 29.79" Hg 1009 hPa